• Join FlightAware (Why Join?)
  • Login
  • US Flag 
11:34PM EST


 

Airport Tracker/Info


-or-


 

Live Flight TrackerFlight Track Log ✈ SKW6399 ✈ 14-Jul-2013 ✈ KDSM - KDEN

Flight Track Log - Related Links

Times and Time Zones

All times are in EDT time to prevent confusion due to time zone crossing. See the SKW6399 flight status page for this flight to view local times or setup timezone preferences in your user account.

Time Position Orientation Groundspeed Altitude Reporting Facility
EDT Latitude Longitude Course Direction KTS MPH feet Rate Location/Type
10:48PM 41.5314 -93.6369 312° West 217 250 1,500  Level Minneapolis Center
10:49PM 41.5108 -93.6028 129° Southeast 171 197 2,500 1,800 Climbing Minneapolis Center
10:50PM 41.4833 -93.5583 130° Southeast 217 250 4,100 2,280 Climbing Minneapolis Center
10:51PM 41.8356 -94.0956 316° Northwest  Level FlightAware Approximate
10:51PM 41.5431 -93.5214 25° Northeast 277 319 6,500  Level Minneapolis Center
10:52PM 41.9425 -94.2372 313° West  Level FlightAware Approximate
10:52PM 41.6092 -93.5953 320° Northwest 298 343 8,900  Level Minneapolis Center
10:53PM 42.0448 -94.3850 313° West  Level FlightAware Approximate
10:53PM 41.6639 -93.6764 312° West 304 350 11,200  Level Minneapolis Center
10:54PM 42.1195 -94.4958 312° West  Level FlightAware Approximate
10:54PM 41.7244 -93.7639 313° West 319 367 12,700  Level Minneapolis Center
10:55PM 41.7931 -93.8631 313° West 354 407 13,700 1,320 Climbing Minneapolis Center
10:56PM 41.8669 -93.9756 311° West 379 436 15,500 1,560 Climbing Minneapolis Center
10:57PM 41.9403 -94.0858 312° West 391 450 16,900 1,200 Climbing Minneapolis Center
10:58PM 42.0147 -94.1978 312° West 398 458 18,300 1,320 Climbing Minneapolis Center
10:59PM 42.1047 -94.3347 312° West 406 467 20,000 1,320 Climbing Minneapolis Center
11:00PM 42.1781 -94.4483 311° West 410 472 21,100 1,260 Climbing Minneapolis Center
11:01PM 42.2733 -94.5922 312° West 421 484 22,600 1,140 Climbing Minneapolis Center
11:02PM 42.3492 -94.7092 311° West 418 481 23,500 900 Climbing Minneapolis Center
11:03PM 42.4275 -94.8317 311° West 429 494 24,500 1,020 Climbing Minneapolis Center
11:04PM 42.5083 -94.9542 312° West 435 501 25,600 1,020 Climbing Minneapolis Center
11:05PM 42.5875 -95.0769 311° West 434 499 26,600 960 Climbing Minneapolis Center
11:06PM 42.6839 -95.2261 311° West 438 504 27,800 900 Climbing Minneapolis Center
11:07PM 42.7606 -95.3472 311° West 441 507 28,700 1,020 Climbing Minneapolis Center
11:08PM 42.8561 -95.4994 311° West 440 506 29,900 1,020 Climbing Minneapolis Center
11:09PM 42.9358 -95.6269 311° West 442 509 30,900 1,020 Climbing Minneapolis Center
11:10PM 43.0039 -95.7631 304° West 444 511 32,000 960 Climbing Minneapolis Center
11:11PM 43.0561 -95.9111 296° West 430 495 32,900 780 Climbing Minneapolis Center
11:12PM 43.1069 -96.0603 295° West 432 497 33,700 720 Climbing Minneapolis Center
11:13PM 43.1583 -96.2131 295° West 436 502 34,400 600 Climbing Minneapolis Center
11:14PM 43.2089 -96.3644 295° West 436 502 35,000 540 Climbing Minneapolis Center
11:15PM 43.2611 -96.5175 295° West 439 505 35,600 540 Climbing Minneapolis Center
11:16PM 43.3119 -96.6728 294° West 442 509 36,200 540 Climbing Minneapolis Center
11:18PM 43.3639 -96.8275 295° West 444 511 36,700 480 Climbing Minneapolis Center
11:19PM 43.4142 -96.9831 294° West 444 511 37,200 480 Climbing Minneapolis Center
11:20PM 43.4661 -97.1394 295° West 446 513 37,700 360 Climbing Minneapolis Center
11:21PM 43.5164 -97.2961 294° West 447 514 38,000 120 Climbing Minneapolis Center
11:22PM 43.5767 -97.4867 294° West 451 519 38,000  Level Minneapolis Center
11:23PM 43.6272 -97.6472 294° West 455 524 38,000  Level Minneapolis Center
11:24PM 43.6786 -97.8075 294° West 456 525 38,000  Level Minneapolis Center
11:25PM 43.7306 -97.9675 294° West 456 525 38,000  Level Minneapolis Center
11:26PM 43.7814 -98.1278 294° West 455 524 38,000  Level Minneapolis Center
11:27PM 43.8317 -98.2881 294° West 455 524 38,000  Level Minneapolis Center
11:28PM 43.8811 -98.4483 293° West 454 522 38,000  Level Minneapolis Center
11:29PM 43.9308 -98.6083 293° West 453 521 38,000  Level Minneapolis Center
11:30PM 43.9764 -98.7622 292° West 451 519 38,000  Level Minneapolis Center
11:31PM 44.0347 -98.9553 293° West 452 520 38,000  Level Minneapolis Center
11:32PM 44.0842 -99.1167 293° West 454 522 38,000  Level Minneapolis Center
11:33PM 44.1017 -99.2858 278° West 441 507 38,000  Level Minneapolis Center
11:34PM 44.0628 -99.4486 252° West 441 507 38,000  Level Minneapolis Center
11:35PM 43.9931 -99.5867 235° Southwest 435 501 38,000  Level Minneapolis Center
11:36PM 43.9225 -99.7264 235° Southwest 439 505 38,000  Level Minneapolis Center
11:37PM 43.8536 -99.8650 235° Southwest 438 504 38,000  Level Minneapolis Center
11:38PM 43.7825 -100.0058 235° Southwest 441 507 38,000  Level Minneapolis Center
11:39PM 43.7117 -100.1425 234° Southwest 440 506 38,000  Level Minneapolis Center
11:40PM 43.6403 -100.2797 234° Southwest 438 504 38,000  Level Minneapolis Center
11:41PM 43.5692 -100.4203 235° Southwest 443 510 38,000  Level Minneapolis Center
11:42PM 43.4975 -100.5569 234° Southwest 442 509 38,000  Level Minneapolis Center
11:43PM 43.4392 -100.6650 233° Southwest 442 509 38,000  Level Denver Center
11:44PM 43.3639 -100.7989 232° Southwest 442 509 38,000  Level Denver Center
11:45PM 43.2703 -100.9061 220° Southwest 437 503 38,000  Level Denver Center
11:46PM 43.1775 -101.0156 221° Southwest 440 506 38,000  Level Denver Center
11:47PM 43.0839 -101.1244 220° Southwest 442 509 38,000  Level Denver Center
11:48PM 42.9897 -101.2311 220° Southwest 441 507 38,000  Level Denver Center
11:49PM 42.8944 -101.3383 220° Southwest 443 510 38,000  Level Denver Center
11:50PM 42.7886 -101.4606 220° Southwest 441 507 38,000  Level Denver Center
11:51PM 42.7000 -101.5669 221° Southwest 443 510 38,000  Level Denver Center
11:52PM 42.6083 -101.6686 219° Southwest 445 512 38,000  Level Denver Center
11:53PM 42.5028 -101.7867 220° Southwest 443 510 38,000  Level Denver Center
11:54PM 42.4131 -101.8883 220° Southwest 439 505 38,000  Level Denver Center
11:55PM 42.3061 -102.0075 220° Southwest 444 511 38,000  Level Denver Center
11:56PM 42.2144 -102.1094 219° Southwest 447 514 38,000  Level Denver Center
11:57PM 42.1217 -102.2128 220° Southwest 448 516 38,000  Level Denver Center
11:58PM 42.0131 -102.3331 219° Southwest 451 519 38,000  Level Denver Center
11:59PM 41.9219 -102.4331 219° Southwest 444 511 38,000  Level Denver Center
12:00AM 41.8283 -102.5350 219° Southwest 450 518 38,000  Level Denver Center
12:01AM 41.7194 -102.6539 219° Southwest 451 519 38,000  Level Denver Center
12:02AM 41.6283 -102.7547 220° Southwest 445 512 38,000  Level Denver Center
12:03AM 41.5347 -102.8547 219° Southwest 447 514 38,000  Level Denver Center
12:04AM 41.4244 -102.9733 219° Southwest 455 524 38,000  Level Denver Center
12:05AM 41.3303 -103.0747 219° Southwest 454 522 38,000 -240 Level Denver Center
12:06AM 41.2208 -103.1908 219° Southwest 451 519 37,600 -1,200 Descending Denver Center
12:07AM 41.1264 -103.2922 219° Southwest 454 522 35,600 -1,980 Descending Denver Center
12:08AM 41.0314 -103.3928 219° Southwest 455 524 33,600 -2,160 Descending Denver Center
12:09AM 40.9264 -103.4994 218° Southwest 449 517 31,300 -2,220 Descending Denver Center
12:10AM 40.8114 -103.5628 203° Southwest 447 514 29,100 -2,220 Descending Denver Center
12:11AM 40.6967 -103.6211 201° Southwest 443 510 26,900 -2,220 Descending Denver Center
12:12AM 40.5869 -103.6886 205° Southwest 438 504 24,700 -2,220 Descending Denver Center
12:13AM 40.5044 -103.8036 227° Southwest 433 498 22,500 -2,280 Descending Denver Center
12:14AM 40.4194 -103.9194 226° Southwest 416 479 20,100 -1,260 Descending Denver Center
12:15AM 40.3433 -104.0217 226° Southwest 357 411 20,000 -60 Descending Denver Center
12:16AM 40.2711 -104.1083 222° Southwest 354 407 20,000 -300 Level Denver Center
12:17AM 40.1981 -104.1953 222° Southwest 355 409 19,500 -1,140 Descending Denver Center
12:18AM 40.1269 -104.2828 223° Southwest 351 404 17,800 -1,500 Descending Denver Center
12:19AM 40.0561 -104.3675 222° Southwest 347 399 16,500 -1,680 Descending Denver Center
12:20AM 39.9825 -104.4567 223° Southwest 335 386 14,500 -1,680 Descending Denver Center
12:21AM 39.9231 -104.5011 210° Southwest 328 377 13,200 -1,680 Descending Denver Center
12:22AM 39.8161 -104.5058 182° South 310 357 11,200 -1,440 Descending Denver Center
12:23AM 39.7311 -104.5078 181° South 304 350 10,300 -1,200 Descending Denver Center
12:24AM 39.6625 -104.5464 203° Southwest 285 328 8,800 -1,140 Descending Denver Center
12:25AM 39.6867 -104.6272 291° West 258 297 8,000 -840 Descending Denver Center